Cleveland, Ohio
Traffic Map
Current Weather Conditions
Cleveland, Ohio
Overcast
Overcast
32°
Feels Like: 27°
Wind Chill: 27° Ceiling: 2300
Heat Index: 32° Visibility: 10mi
Dew Point: 22° Wind: 5mph
Humidity: 66% Direction: 220° (SW)
Pressure: 30.28in Gusts: 0mph
Raw Report DataKBKL 210353Z AUTO 22004KT 10SM OVC023 00/M06 A3028 RMK AO2 SLP261 T00001056 TSNO
Traffic Incident Summary
Active as of:
Severity:
Category:
InformationThere was an issue retrieving the traffic information for this location. Please try a different location or try again shortly.
Advertisements
Track Severe Weather on mobile